sensor_id;sensor_type;location;lat;lon;timestamp;P1;durP1;ratioP1;P2;durP2;ratioP2
12363;SDS011;6246;50.826;4.712;2023-02-28T00:00:04;17.23;;;11.80;;
12363;SDS011;6246;50.826;4.712;2023-02-28T00:02:40;14.93;;;11.80;;
12363;SDS011;6246;50.826;4.712;2023-02-28T00:05:07;14.80;;;11.10;;
12363;SDS011;6246;50.826;4.712;2023-02-28T00:07:33;16.20;;;11.93;;
12363;SDS011;6246;50.826;4.712;2023-02-28T00:10:00;21.00;;;11.53;;
12363;SDS011;6246;50.826;4.712;2023-02-28T00:12:26;14.50;;;10.40;;
12363;SDS011;6246;50.826;4.712;2023-02-28T00:14:52;15.73;;;11.23;;
12363;SDS011;6246;50.826;4.712;2023-02-28T00:17:18;20.40;;;12.57;;
12363;SDS011;6246;50.826;4.712;2023-02-28T00:19:46;17.53;;;11.30;;
12363;SDS011;6246;50.826;4.712;2023-02-28T00:22:13;15.23;;;10.87;;
12363;SDS011;6246;50.826;4.712;2023-02-28T00:24:39;15.77;;;10.97;;
12363;SDS011;6246;50.826;4.712;2023-02-28T00:27:05;14.70;;;10.33;;
12363;SDS011;6246;50.826;4.712;2023-02-28T00:29:31;18.33;;;11.53;;
12363;SDS011;6246;50.826;4.712;2023-02-28T00:31:57;15.63;;;10.77;;
12363;SDS011;6246;50.826;4.712;2023-02-28T00:34:23;16.57;;;10.37;;
12363;SDS011;6246;50.826;4.712;2023-02-28T00:36:49;16.20;;;10.50;;
12363;SDS011;6246;50.826;4.712;2023-02-28T00:39:15;14.40;;;9.47;;
12363;SDS011;6246;50.826;4.712;2023-02-28T00:41:41;14.27;;;10.40;;
12363;SDS011;6246;50.826;4.712;2023-02-28T00:44:07;19.77;;;10.57;;
12363;SDS011;6246;50.826;4.712;2023-02-28T00:46:34;16.03;;;10.10;;
12363;SDS011;6246;50.826;4.712;2023-02-28T00:49:00;18.80;;;10.40;;
12363;SDS011;6246;50.826;4.712;2023-02-28T00:51:26;17.93;;;10.07;;
12363;SDS011;6246;50.826;4.712;2023-02-28T00:53:52;12.90;;;9.47;;
12363;SDS011;6246;50.826;4.712;2023-02-28T00:56:18;15.30;;;9.83;;
12363;SDS011;6246;50.826;4.712;2023-02-28T00:58:45;13.27;;;9.50;;
12363;SDS011;6246;50.826;4.712;2023-02-28T01:01:11;12.00;;;8.63;;
12363;SDS011;6246;50.826;4.712;2023-02-28T01:03:37;13.30;;;8.83;;
12363;SDS011;6246;50.826;4.712;2023-02-28T01:06:03;15.27;;;9.20;;
12363;SDS011;6246;50.826;4.712;2023-02-28T01:08:29;16.37;;;9.10;;
12363;SDS011;6246;50.826;4.712;2023-02-28T01:10:55;13.07;;;8.80;;
12363;SDS011;6246;50.826;4.712;2023-02-28T01:13:22;11.30;;;8.40;;
12363;SDS011;6246;50.826;4.712;2023-02-28T01:15:51;10.50;;;7.63;;
12363;SDS011;6246;50.826;4.712;2023-02-28T01:18:18;12.30;;;8.03;;
12363;SDS011;6246;50.826;4.712;2023-02-28T01:20:44;12.63;;;7.90;;
12363;SDS011;6246;50.826;4.712;2023-02-28T01:23:11;11.40;;;7.37;;
12363;SDS011;6246;50.826;4.712;2023-02-28T01:25:37;12.00;;;7.50;;
12363;SDS011;6246;50.826;4.712;2023-02-28T01:28:03;17.30;;;7.50;;
12363;SDS011;6246;50.826;4.712;2023-02-28T01:30:29;11.47;;;7.43;;
12363;SDS011;6246;50.826;4.712;2023-02-28T01:32:55;12.57;;;7.53;;
12363;SDS011;6246;50.826;4.712;2023-02-28T01:35:21;10.30;;;7.37;;
12363;SDS011;6246;50.826;4.712;2023-02-28T01:37:47;10.57;;;7.37;;
12363;SDS011;6246;50.826;4.712;2023-02-28T01:40:13;13.60;;;7.77;;
12363;SDS011;6246;50.826;4.712;2023-02-28T01:42:39;12.97;;;7.67;;
12363;SDS011;6246;50.826;4.712;2023-02-28T01:45:22;10.50;;;6.50;;
12363;SDS011;6246;50.826;4.712;2023-02-28T01:47:50;8.23;;;6.37;;
12363;SDS011;6246;50.826;4.712;2023-02-28T01:50:18;7.70;;;5.83;;
12363;SDS011;6246;50.826;4.712;2023-02-28T01:52:45;11.00;;;6.43;;
12363;SDS011;6246;50.826;4.712;2023-02-28T01:55:12;10.57;;;6.80;;
12363;SDS011;6246;50.826;4.712;2023-02-28T01:57:51;8.97;;;6.60;;
12363;SDS011;6246;50.826;4.712;2023-02-28T02:00:20;8.67;;;6.20;;
12363;SDS011;6246;50.826;4.712;2023-02-28T02:02:47;7.80;;;6.10;;
12363;SDS011;6246;50.826;4.712;2023-02-28T02:05:18;7.67;;;5.90;;
12363;SDS011;6246;50.826;4.712;2023-02-28T02:07:46;8.60;;;5.87;;
12363;SDS011;6246;50.826;4.712;2023-02-28T02:10:59;8.73;;;5.27;;
12363;SDS011;6246;50.826;4.712;2023-02-28T02:13:08;7.63;;;5.90;;
12363;SDS011;6246;50.826;4.712;2023-02-28T02:15:40;8.17;;;5.80;;
12363;SDS011;6246;50.826;4.712;2023-02-28T02:23:45;9.33;;;5.40;;
12363;SDS011;6246;50.826;4.712;2023-02-28T02:29:10;5.97;;;4.87;;
12363;SDS011;6246;50.826;4.712;2023-02-28T02:31:36;7.40;;;5.03;;
12363;SDS011;6246;50.826;4.712;2023-02-28T02:36:38;7.10;;;4.77;;
12363;SDS011;6246;50.826;4.712;2023-02-28T02:44:10;7.67;;;5.40;;
12363;SDS011;6246;50.826;4.712;2023-02-28T02:46:39;5.50;;;4.20;;
12363;SDS011;6246;50.826;4.712;2023-02-28T02:49:08;5.53;;;4.63;;
12363;SDS011;6246;50.826;4.712;2023-02-28T02:51:35;6.27;;;4.80;;
12363;SDS011;6246;50.826;4.712;2023-02-28T02:54:10;5.40;;;4.70;;
12363;SDS011;6246;50.826;4.712;2023-02-28T02:56:37;6.27;;;4.70;;
12363;SDS011;6246;50.826;4.712;2023-02-28T02:59:06;5.73;;;4.40;;
12363;SDS011;6246;50.826;4.712;2023-02-28T03:01:34;5.60;;;4.50;;
12363;SDS011;6246;50.826;4.712;2023-02-28T03:04:01;4.87;;;4.03;;
12363;SDS011;6246;50.826;4.712;2023-02-28T03:06:28;10.43;;;4.80;;
12363;SDS011;6246;50.826;4.712;2023-02-28T03:08:54;6.07;;;4.33;;
12363;SDS011;6246;50.826;4.712;2023-02-28T03:11:20;6.40;;;4.50;;
12363;SDS011;6246;50.826;4.712;2023-02-28T03:14:08;4.40;;;4.00;;
12363;SDS011;6246;50.826;4.712;2023-02-28T03:19:06;3.80;;;3.50;;
12363;SDS011;6246;50.826;4.712;2023-02-28T03:21:38;6.07;;;4.00;;
12363;SDS011;6246;50.826;4.712;2023-02-28T03:26:45;4.67;;;3.87;;
12363;SDS011;6246;50.826;4.712;2023-02-28T03:31:49;4.13;;;3.73;;
12363;SDS011;6246;50.826;4.712;2023-02-28T03:34:24;4.53;;;3.63;;
12363;SDS011;6246;50.826;4.712;2023-02-28T03:36:53;3.87;;;3.47;;
12363;SDS011;6246;50.826;4.712;2023-02-28T03:39:31;4.47;;;3.97;;
12363;SDS011;6246;50.826;4.712;2023-02-28T03:42:07;4.40;;;4.00;;
12363;SDS011;6246;50.826;4.712;2023-02-28T03:44:36;4.07;;;3.33;;
12363;SDS011;6246;50.826;4.712;2023-02-28T03:47:04;4.77;;;3.77;;
12363;SDS011;6246;50.826;4.712;2023-02-28T03:49:35;4.20;;;3.70;;
12363;SDS011;6246;50.826;4.712;2023-02-28T03:52:02;4.00;;;3.60;;
12363;SDS011;6246;50.826;4.712;2023-02-28T03:54:33;4.43;;;3.23;;
12363;SDS011;6246;50.826;4.712;2023-02-28T03:57:15;5.40;;;3.30;;
12363;SDS011;6246;50.826;4.712;2023-02-28T03:59:44;4.07;;;3.63;;
12363;SDS011;6246;50.826;4.712;2023-02-28T04:02:10;3.47;;;3.17;;
12363;SDS011;6246;50.826;4.712;2023-02-28T04:04:37;4.10;;;3.17;;
12363;SDS011;6246;50.826;4.712;2023-02-28T04:07:09;4.07;;;3.43;;
12363;SDS011;6246;50.826;4.712;2023-02-28T04:09:36;3.87;;;3.00;;
12363;SDS011;6246;50.826;4.712;2023-02-28T04:12:03;3.47;;;2.83;;
12363;SDS011;6246;50.826;4.712;2023-02-28T04:14:29;5.07;;;3.40;;
12363;SDS011;6246;50.826;4.712;2023-02-28T04:16:55;3.70;;;3.10;;
12363;SDS011;6246;50.826;4.712;2023-02-28T04:19:21;4.07;;;3.63;;
12363;SDS011;6246;50.826;4.712;2023-02-28T04:21:49;3.47;;;3.17;;
12363;SDS011;6246;50.826;4.712;2023-02-28T04:24:16;3.27;;;2.97;;
12363;SDS011;6246;50.826;4.712;2023-02-28T04:26:44;3.27;;;3.03;;
12363;SDS011;6246;50.826;4.712;2023-02-28T04:29:11;4.40;;;3.00;;
12363;SDS011;6246;50.826;4.712;2023-02-28T04:31:38;3.40;;;3.00;;
12363;SDS011;6246;50.826;4.712;2023-02-28T04:34:04;4.27;;;2.80;;
12363;SDS011;6246;50.826;4.712;2023-02-28T04:36:30;4.47;;;2.90;;
12363;SDS011;6246;50.826;4.712;2023-02-28T04:38:56;3.87;;;3.10;;
12363;SDS011;6246;50.826;4.712;2023-02-28T04:41:22;6.93;;;2.90;;
12363;SDS011;6246;50.826;4.712;2023-02-28T04:43:49;3.43;;;2.70;;
12363;SDS011;6246;50.826;4.712;2023-02-28T04:46:15;6.63;;;3.03;;
12363;SDS011;6246;50.826;4.712;2023-02-28T04:48:42;4.77;;;2.87;;
12363;SDS011;6246;50.826;4.712;2023-02-28T04:51:10;3.53;;;2.67;;
12363;SDS011;6246;50.826;4.712;2023-02-28T04:53:37;4.17;;;3.23;;
12363;SDS011;6246;50.826;4.712;2023-02-28T04:56:04;4.23;;;3.10;;
12363;SDS011;6246;50.826;4.712;2023-02-28T04:58:31;4.70;;;2.97;;
12363;SDS011;6246;50.826;4.712;2023-02-28T05:01:17;4.80;;;2.70;;
12363;SDS011;6246;50.826;4.712;2023-02-28T05:03:44;5.77;;;2.77;;
12363;SDS011;6246;50.826;4.712;2023-02-28T05:06:10;3.17;;;2.73;;
12363;SDS011;6246;50.826;4.712;2023-02-28T05:08:36;2.80;;;2.60;;
12363;SDS011;6246;50.826;4.712;2023-02-28T05:11:03;5.13;;;2.90;;
12363;SDS011;6246;50.826;4.712;2023-02-28T05:13:29;3.37;;;2.70;;
12363;SDS011;6246;50.826;4.712;2023-02-28T05:15:55;3.27;;;2.73;;
12363;SDS011;6246;50.826;4.712;2023-02-28T05:18:22;3.57;;;2.77;;
12363;SDS011;6246;50.826;4.712;2023-02-28T05:20:48;9.03;;;2.93;;
12363;SDS011;6246;50.826;4.712;2023-02-28T05:23:14;2.90;;;2.70;;
12363;SDS011;6246;50.826;4.712;2023-02-28T05:25:40;3.30;;;2.90;;
12363;SDS011;6246;50.826;4.712;2023-02-28T05:28:07;3.30;;;2.47;;
12363;SDS011;6246;50.826;4.712;2023-02-28T05:30:33;2.87;;;2.63;;
12363;SDS011;6246;50.826;4.712;2023-02-28T05:32:59;3.47;;;2.70;;
12363;SDS011;6246;50.826;4.712;2023-02-28T05:35:25;3.43;;;2.90;;
12363;SDS011;6246;50.826;4.712;2023-02-28T05:37:51;3.90;;;2.93;;
12363;SDS011;6246;50.826;4.712;2023-02-28T05:40:17;2.60;;;2.40;;
12363;SDS011;6246;50.826;4.712;2023-02-28T05:42:45;3.83;;;2.67;;
12363;SDS011;6246;50.826;4.712;2023-02-28T05:45:11;2.97;;;2.40;;
12363;SDS011;6246;50.826;4.712;2023-02-28T05:47:37;3.20;;;2.87;;
12363;SDS011;6246;50.826;4.712;2023-02-28T05:50:03;4.37;;;3.00;;
12363;SDS011;6246;50.826;4.712;2023-02-28T05:52:30;3.00;;;2.70;;
12363;SDS011;6246;50.826;4.712;2023-02-28T05:54:56;4.13;;;2.87;;
12363;SDS011;6246;50.826;4.712;2023-02-28T05:57:22;2.67;;;2.33;;
12363;SDS011;6246;50.826;4.712;2023-02-28T05:59:48;2.77;;;2.47;;
12363;SDS011;6246;50.826;4.712;2023-02-28T06:02:16;3.40;;;2.87;;
12363;SDS011;6246;50.826;4.712;2023-02-28T06:04:42;3.17;;;2.80;;
12363;SDS011;6246;50.826;4.712;2023-02-28T06:07:08;2.97;;;2.70;;
12363;SDS011;6246;50.826;4.712;2023-02-28T06:09:34;4.23;;;2.50;;
12363;SDS011;6246;50.826;4.712;2023-02-28T06:12:01;4.53;;;2.37;;
12363;SDS011;6246;50.826;4.712;2023-02-28T06:14:30;3.10;;;2.80;;
12363;SDS011;6246;50.826;4.712;2023-02-28T06:16:57;3.10;;;2.50;;
12363;SDS011;6246;50.826;4.712;2023-02-28T06:19:23;2.83;;;2.63;;
12363;SDS011;6246;50.826;4.712;2023-02-28T06:21:50;3.20;;;2.90;;
12363;SDS011;6246;50.826;4.712;2023-02-28T06:24:18;6.30;;;3.40;;
12363;SDS011;6246;50.826;4.712;2023-02-28T06:26:44;3.30;;;2.93;;
12363;SDS011;6246;50.826;4.712;2023-02-28T06:29:10;4.87;;;3.03;;
12363;SDS011;6246;50.826;4.712;2023-02-28T06:31:36;3.90;;;2.77;;
12363;SDS011;6246;50.826;4.712;2023-02-28T06:34:03;4.40;;;3.03;;
12363;SDS011;6246;50.826;4.712;2023-02-28T06:36:29;3.97;;;2.80;;
12363;SDS011;6246;50.826;4.712;2023-02-28T06:38:56;2.83;;;2.63;;
12363;SDS011;6246;50.826;4.712;2023-02-28T06:41:25;4.07;;;3.03;;
12363;SDS011;6246;50.826;4.712;2023-02-28T06:43:51;3.33;;;3.03;;
12363;SDS011;6246;50.826;4.712;2023-02-28T06:46:18;2.80;;;2.60;;
12363;SDS011;6246;50.826;4.712;2023-02-28T06:48:44;3.53;;;2.90;;
12363;SDS011;6246;50.826;4.712;2023-02-28T06:51:13;5.10;;;2.97;;
12363;SDS011;6246;50.826;4.712;2023-02-28T06:53:39;3.43;;;2.93;;
12363;SDS011;6246;50.826;4.712;2023-02-28T06:56:06;5.87;;;2.90;;
12363;SDS011;6246;50.826;4.712;2023-02-28T06:58:33;5.03;;;3.30;;
12363;SDS011;6246;50.826;4.712;2023-02-28T07:00:59;3.60;;;2.97;;
12363;SDS011;6246;50.826;4.712;2023-02-28T07:03:25;3.20;;;2.90;;
12363;SDS011;6246;50.826;4.712;2023-02-28T07:05:51;6.37;;;3.10;;
12363;SDS011;6246;50.826;4.712;2023-02-28T07:08:17;4.63;;;3.10;;
12363;SDS011;6246;50.826;4.712;2023-02-28T07:10:43;3.23;;;2.93;;
12363;SDS011;6246;50.826;4.712;2023-02-28T07:13:10;4.77;;;3.20;;
12363;SDS011;6246;50.826;4.712;2023-02-28T07:15:36;6.10;;;3.07;;
12363;SDS011;6246;50.826;4.712;2023-02-28T07:18:02;7.17;;;3.17;;
12363;SDS011;6246;50.826;4.712;2023-02-28T07:20:29;5.20;;;3.30;;
12363;SDS011;6246;50.826;4.712;2023-02-28T07:22:55;5.67;;;3.23;;
12363;SDS011;6246;50.826;4.712;2023-02-28T07:25:22;4.13;;;3.20;;
12363;SDS011;6246;50.826;4.712;2023-02-28T07:27:48;6.77;;;3.23;;
12363;SDS011;6246;50.826;4.712;2023-02-28T07:30:14;3.93;;;3.23;;
12363;SDS011;6246;50.826;4.712;2023-02-28T07:32:40;5.97;;;3.30;;
12363;SDS011;6246;50.826;4.712;2023-02-28T07:35:06;3.13;;;2.83;;
12363;SDS011;6246;50.826;4.712;2023-02-28T07:37:32;5.23;;;3.43;;
12363;SDS011;6246;50.826;4.712;2023-02-28T07:40:05;3.63;;;3.07;;
12363;SDS011;6246;50.826;4.712;2023-02-28T07:42:33;4.47;;;2.80;;
12363;SDS011;6246;50.826;4.712;2023-02-28T07:44:59;4.23;;;2.90;;
12363;SDS011;6246;50.826;4.712;2023-02-28T07:47:25;4.43;;;2.83;;
12363;SDS011;6246;50.826;4.712;2023-02-28T07:49:51;2.90;;;2.60;;
12363;SDS011;6246;50.826;4.712;2023-02-28T07:52:17;3.60;;;3.23;;
12363;SDS011;6246;50.826;4.712;2023-02-28T07:54:43;3.13;;;2.80;;
12363;SDS011;6246;50.826;4.712;2023-02-28T07:57:09;3.87;;;3.03;;
12363;SDS011;6246;50.826;4.712;2023-02-28T07:59:35;4.80;;;2.97;;
12363;SDS011;6246;50.826;4.712;2023-02-28T08:02:01;5.60;;;3.10;;
12363;SDS011;6246;50.826;4.712;2023-02-28T08:04:27;4.33;;;2.97;;
12363;SDS011;6246;50.826;4.712;2023-02-28T08:06:57;4.07;;;3.03;;
12363;SDS011;6246;50.826;4.712;2023-02-28T08:09:23;3.23;;;2.93;;
12363;SDS011;6246;50.826;4.712;2023-02-28T08:11:49;3.73;;;2.63;;
12363;SDS011;6246;50.826;4.712;2023-02-28T08:14:15;3.50;;;2.87;;
12363;SDS011;6246;50.826;4.712;2023-02-28T08:16:42;4.47;;;2.57;;
12363;SDS011;6246;50.826;4.712;2023-02-28T08:19:08;3.07;;;2.77;;
12363;SDS011;6246;50.826;4.712;2023-02-28T08:21:34;3.20;;;2.90;;
12363;SDS011;6246;50.826;4.712;2023-02-28T08:24:00;2.97;;;2.73;;
12363;SDS011;6246;50.826;4.712;2023-02-28T08:26:26;3.70;;;3.00;;
12363;SDS011;6246;50.826;4.712;2023-02-28T08:28:52;3.40;;;2.57;;
12363;SDS011;6246;50.826;4.712;2023-02-28T08:31:18;4.13;;;2.97;;
12363;SDS011;6246;50.826;4.712;2023-02-28T08:33:44;4.07;;;2.80;;
12363;SDS011;6246;50.826;4.712;2023-02-28T08:36:12;2.83;;;2.63;;
12363;SDS011;6246;50.826;4.712;2023-02-28T08:38:38;3.13;;;2.83;;
12363;SDS011;6246;50.826;4.712;2023-02-28T08:41:05;3.33;;;3.03;;
12363;SDS011;6246;50.826;4.712;2023-02-28T08:43:32;4.43;;;2.60;;
12363;SDS011;6246;50.826;4.712;2023-02-28T08:45:58;3.47;;;2.90;;
12363;SDS011;6246;50.826;4.712;2023-02-28T08:48:28;4.30;;;3.20;;
12363;SDS011;6246;50.826;4.712;2023-02-28T08:51:04;3.20;;;2.73;;
12363;SDS011;6246;50.826;4.712;2023-02-28T08:53:31;3.97;;;2.80;;
12363;SDS011;6246;50.826;4.712;2023-02-28T08:55:58;4.03;;;2.67;;
12363;SDS011;6246;50.826;4.712;2023-02-28T08:58:24;3.73;;;2.57;;
12363;SDS011;6246;50.826;4.712;2023-02-28T09:00:50;3.30;;;2.50;;
12363;SDS011;6246;50.826;4.712;2023-02-28T09:03:16;4.67;;;2.30;;
12363;SDS011;6246;50.826;4.712;2023-02-28T09:05:51;4.23;;;2.60;;
12363;SDS011;6246;50.826;4.712;2023-02-28T09:08:17;4.40;;;2.57;;
12363;SDS011;6246;50.826;4.712;2023-02-28T09:10:43;3.40;;;2.60;;
12363;SDS011;6246;50.826;4.712;2023-02-28T09:13:09;3.30;;;2.47;;
12363;SDS011;6246;50.826;4.712;2023-02-28T09:15:36;3.07;;;2.73;;
12363;SDS011;6246;50.826;4.712;2023-02-28T09:18:03;2.33;;;2.00;;
12363;SDS011;6246;50.826;4.712;2023-02-28T09:20:28;3.60;;;2.20;;
12363;SDS011;6246;50.826;4.712;2023-02-28T09:22:54;3.77;;;2.90;;
12363;SDS011;6246;50.826;4.712;2023-02-28T09:25:21;2.73;;;2.20;;
12363;SDS011;6246;50.826;4.712;2023-02-28T09:27:47;2.40;;;2.20;;
12363;SDS011;6246;50.826;4.712;2023-02-28T09:30:13;2.63;;;2.27;;
12363;SDS011;6246;50.826;4.712;2023-02-28T09:32:39;3.40;;;2.00;;
12363;SDS011;6246;50.826;4.712;2023-02-28T09:35:05;3.43;;;1.90;;
12363;SDS011;6246;50.826;4.712;2023-02-28T09:37:32;4.73;;;2.47;;
12363;SDS011;6246;50.826;4.712;2023-02-28T09:39:58;2.40;;;2.20;;
12363;SDS011;6246;50.826;4.712;2023-02-28T09:42:25;3.83;;;2.10;;
12363;SDS011;6246;50.826;4.712;2023-02-28T09:44:53;3.43;;;1.90;;
12363;SDS011;6246;50.826;4.712;2023-02-28T09:47:27;2.07;;;1.97;;
12363;SDS011;6246;50.826;4.712;2023-02-28T09:49:54;2.73;;;2.30;;
12363;SDS011;6246;50.826;4.712;2023-02-28T09:52:24;6.40;;;3.20;;
12363;SDS011;6246;50.826;4.712;2023-02-28T09:54:54;3.20;;;2.10;;
12363;SDS011;6246;50.826;4.712;2023-02-28T09:57:33;7.70;;;2.80;;
12363;SDS011;6246;50.826;4.712;2023-02-28T10:05:15;4.27;;;2.00;;
12363;SDS011;6246;50.826;4.712;2023-02-28T10:08:02;7.53;;;2.47;;
12363;SDS011;6246;50.826;4.712;2023-02-28T10:10:46;8.50;;;2.00;;
12363;SDS011;6246;50.826;4.712;2023-02-28T10:15:46;4.70;;;2.00;;
12363;SDS011;6246;50.826;4.712;2023-02-28T10:18:15;3.63;;;2.27;;
12363;SDS011;6246;50.826;4.712;2023-02-28T10:20:42;4.83;;;1.90;;
12363;SDS011;6246;50.826;4.712;2023-02-28T10:23:14;1.90;;;1.60;;
12363;SDS011;6246;50.826;4.712;2023-02-28T10:25:43;4.63;;;2.27;;
12363;SDS011;6246;50.826;4.712;2023-02-28T10:28:14;5.73;;;1.70;;
12363;SDS011;6246;50.826;4.712;2023-02-28T10:30:41;4.60;;;2.10;;
12363;SDS011;6246;50.826;4.712;2023-02-28T10:33:13;2.33;;;2.00;;
12363;SDS011;6246;50.826;4.712;2023-02-28T10:35:42;5.07;;;1.90;;
12363;SDS011;6246;50.826;4.712;2023-02-28T10:38:12;2.47;;;1.73;;
12363;SDS011;6246;50.826;4.712;2023-02-28T10:40:40;2.27;;;2.07;;
12363;SDS011;6246;50.826;4.712;2023-02-28T10:45:39;2.97;;;2.00;;
12363;SDS011;6246;50.826;4.712;2023-02-28T10:48:06;3.80;;;1.70;;
12363;SDS011;6246;50.826;4.712;2023-02-28T10:50:52;2.27;;;1.77;;
12363;SDS011;6246;50.826;4.712;2023-02-28T11:01:39;2.00;;;1.67;;
12363;SDS011;6246;50.826;4.712;2023-02-28T11:04:18;3.20;;;1.53;;
12363;SDS011;6246;50.826;4.712;2023-02-28T11:06:46;2.43;;;1.80;;
12363;SDS011;6246;50.826;4.712;2023-02-28T11:09:33;3.10;;;1.43;;
12363;SDS011;6246;50.826;4.712;2023-02-28T11:12:04;4.20;;;1.50;;
12363;SDS011;6246;50.826;4.712;2023-02-28T11:14:31;1.53;;;1.40;;
12363;SDS011;6246;50.826;4.712;2023-02-28T11:17:02;1.87;;;1.60;;
12363;SDS011;6246;50.826;4.712;2023-02-28T11:19:31;1.70;;;1.60;;
12363;SDS011;6246;50.826;4.712;2023-02-28T11:22:02;2.47;;;1.60;;
12363;SDS011;6246;50.826;4.712;2023-02-28T11:24:30;2.40;;;1.67;;
12363;SDS011;6246;50.826;4.712;2023-02-28T11:26:57;1.57;;;1.47;;
12363;SDS011;6246;50.826;4.712;2023-02-28T11:29:25;1.63;;;1.53;;
12363;SDS011;6246;50.826;4.712;2023-02-28T11:34:27;1.87;;;1.30;;
12363;SDS011;6246;50.826;4.712;2023-02-28T11:36:54;3.20;;;1.20;;
12363;SDS011;6246;50.826;4.712;2023-02-28T11:39:21;3.17;;;1.63;;
12363;SDS011;6246;50.826;4.712;2023-02-28T11:47:32;2.70;;;1.43;;
12363;SDS011;6246;50.826;4.712;2023-02-28T11:55:16;5.87;;;1.70;;
12363;SDS011;6246;50.826;4.712;2023-02-28T11:57:49;3.63;;;1.53;;
12363;SDS011;6246;50.826;4.712;2023-02-28T12:00:29;5.97;;;2.13;;
12363;SDS011;6246;50.826;4.712;2023-02-28T12:03:03;8.47;;;1.83;;
12363;SDS011;6246;50.826;4.712;2023-02-28T12:05:40;5.87;;;1.47;;
12363;SDS011;6246;50.826;4.712;2023-02-28T12:23:56;5.88;;;1.52;;
12363;SDS011;6246;50.826;4.712;2023-02-28T12:26:31;3.72;;;1.50;;
12363;SDS011;6246;50.826;4.712;2023-02-28T12:29:02;3.20;;;1.55;;
12363;SDS011;6246;50.826;4.712;2023-02-28T12:31:30;3.90;;;1.42;;
12363;SDS011;6246;50.826;4.712;2023-02-28T12:33:59;5.20;;;1.60;;
12363;SDS011;6246;50.826;4.712;2023-02-28T12:36:26;3.00;;;1.25;;
12363;SDS011;6246;50.826;4.712;2023-02-28T12:39:10;3.08;;;1.77;;
12363;SDS011;6246;50.826;4.712;2023-02-28T12:44:07;5.75;;;1.42;;
12363;SDS011;6246;50.826;4.712;2023-02-28T12:46:41;1.30;;;1.20;;
12363;SDS011;6246;50.826;4.712;2023-02-28T12:49:09;4.70;;;1.00;;
12363;SDS011;6246;50.826;4.712;2023-02-28T12:51:36;3.88;;;1.33;;
12363;SDS011;6246;50.826;4.712;2023-02-28T12:54:13;3.40;;;1.60;;
12363;SDS011;6246;50.826;4.712;2023-02-28T12:59:21;1.90;;;1.10;;
12363;SDS011;6246;50.826;4.712;2023-02-28T13:09:40;2.00;;;1.60;;
12363;SDS011;6246;50.826;4.712;2023-02-28T13:12:13;2.05;;;1.25;;
12363;SDS011;6246;50.826;4.712;2023-02-28T13:14:40;1.35;;;1.20;;
12363;SDS011;6246;50.826;4.712;2023-02-28T13:19:39;2.38;;;1.38;;
12363;SDS011;6246;50.826;4.712;2023-02-28T13:22:15;2.95;;;1.08;;
12363;SDS011;6246;50.826;4.712;2023-02-28T13:24:50;2.28;;;1.50;;
12363;SDS011;6246;50.826;4.712;2023-02-28T13:27:24;1.58;;;1.15;;
12363;SDS011;6246;50.826;4.712;2023-02-28T13:29:57;2.35;;;1.20;;
12363;SDS011;6246;50.826;4.712;2023-02-28T13:42:22;1.40;;;1.15;;
12363;SDS011;6246;50.826;4.712;2023-02-28T13:47:41;2.25;;;0.80;;
12363;SDS011;6246;50.826;4.712;2023-02-28T13:53:06;2.83;;;1.13;;
12363;SDS011;6246;50.826;4.712;2023-02-28T14:03:21;1.38;;;1.15;;
12363;SDS011;6246;50.826;4.712;2023-02-28T14:06:37;1.33;;;1.02;;
12363;SDS011;6246;50.826;4.712;2023-02-28T14:08:38;2.40;;;1.13;;
12363;SDS011;6246;50.826;4.712;2023-02-28T14:11:23;2.38;;;1.02;;
12363;SDS011;6246;50.826;4.712;2023-02-28T14:13:50;0.85;;;0.85;;
12363;SDS011;6246;50.826;4.712;2023-02-28T14:16:17;1.55;;;1.13;;
12363;SDS011;6246;50.826;4.712;2023-02-28T14:18:58;2.17;;;0.60;;
12363;SDS011;6246;50.826;4.712;2023-02-28T14:21:27;0.90;;;0.85;;
12363;SDS011;6246;50.826;4.712;2023-02-28T14:32:01;1.48;;;0.90;;
12363;SDS011;6246;50.826;4.712;2023-02-28T14:37:01;1.52;;;1.30;;
12363;SDS011;6246;50.826;4.712;2023-02-28T14:39:28;1.05;;;0.90;;
12363;SDS011;6246;50.826;4.712;2023-02-28T14:41:55;2.55;;;1.20;;
12363;SDS011;6246;50.826;4.712;2023-02-28T14:44:27;1.63;;;0.98;;
12363;SDS011;6246;50.826;4.712;2023-02-28T14:46:54;2.58;;;1.08;;
12363;SDS011;6246;50.826;4.712;2023-02-28T14:49:27;2.10;;;0.83;;
12363;SDS011;6246;50.826;4.712;2023-02-28T14:52:05;1.10;;;0.90;;
12363;SDS011;6246;50.826;4.712;2023-02-28T14:54:34;1.63;;;1.20;;
12363;SDS011;6246;50.826;4.712;2023-02-28T14:57:00;0.90;;;0.90;;
12363;SDS011;6246;50.826;4.712;2023-02-28T14:59:28;1.20;;;0.87;;
12363;SDS011;6246;50.826;4.712;2023-02-28T15:02:17;1.03;;;0.90;;
12363;SDS011;6246;50.826;4.712;2023-02-28T15:04:43;1.27;;;1.17;;
12363;SDS011;6246;50.826;4.712;2023-02-28T15:09:35;1.93;;;1.10;;
12363;SDS011;6246;50.826;4.712;2023-02-28T15:12:01;1.87;;;1.30;;
12363;SDS011;6246;50.826;4.712;2023-02-28T15:14:27;4.53;;;1.30;;
12363;SDS011;6246;50.826;4.712;2023-02-28T15:17:00;3.57;;;0.90;;
12363;SDS011;6246;50.826;4.712;2023-02-28T15:19:32;1.43;;;1.00;;
12363;SDS011;6246;50.826;4.712;2023-02-28T15:22:01;1.43;;;0.80;;
12363;SDS011;6246;50.826;4.712;2023-02-28T15:24:31;1.10;;;1.00;;
12363;SDS011;6246;50.826;4.712;2023-02-28T15:26:58;1.20;;;0.90;;
12363;SDS011;6246;50.826;4.712;2023-02-28T15:29:25;3.53;;;1.03;;
12363;SDS011;6246;50.826;4.712;2023-02-28T15:34:21;1.43;;;1.17;;
12363;SDS011;6246;50.826;4.712;2023-02-28T15:36:47;2.67;;;1.10;;
12363;SDS011;6246;50.826;4.712;2023-02-28T15:39:18;3.37;;;0.83;;
12363;SDS011;6246;50.826;4.712;2023-02-28T15:41:44;1.90;;;0.80;;
12363;SDS011;6246;50.826;4.712;2023-02-28T15:44:17;1.37;;;0.90;;
12363;SDS011;6246;50.826;4.712;2023-02-28T15:46:58;1.07;;;0.90;;
12363;SDS011;6246;50.826;4.712;2023-02-28T15:49:26;3.43;;;1.07;;
12363;SDS011;6246;50.826;4.712;2023-02-28T15:51:53;1.23;;;0.90;;
12363;SDS011;6246;50.826;4.712;2023-02-28T15:54:27;0.90;;;0.90;;
12363;SDS011;6246;50.826;4.712;2023-02-28T15:56:57;2.27;;;0.90;;
12363;SDS011;6246;50.826;4.712;2023-02-28T15:59:27;1.20;;;1.10;;
12363;SDS011;6246;50.826;4.712;2023-02-28T16:02:14;0.83;;;0.83;;
12363;SDS011;6246;50.826;4.712;2023-02-28T16:07:30;2.27;;;1.10;;
12363;SDS011;6246;50.826;4.712;2023-02-28T16:09:56;1.07;;;0.97;;
12363;SDS011;6246;50.826;4.712;2023-02-28T16:12:25;1.87;;;1.20;;
12363;SDS011;6246;50.826;4.712;2023-02-28T16:14:51;2.30;;;0.93;;
12363;SDS011;6246;50.826;4.712;2023-02-28T16:17:25;3.83;;;1.20;;
12363;SDS011;6246;50.826;4.712;2023-02-28T16:19:52;2.37;;;0.97;;
12363;SDS011;6246;50.826;4.712;2023-02-28T16:22:18;1.17;;;1.07;;
12363;SDS011;6246;50.826;4.712;2023-02-28T16:24:44;1.70;;;1.30;;
12363;SDS011;6246;50.826;4.712;2023-02-28T16:27:20;2.00;;;1.30;;
12363;SDS011;6246;50.826;4.712;2023-02-28T16:29:47;1.30;;;1.20;;
12363;SDS011;6246;50.826;4.712;2023-02-28T16:32:14;3.17;;;0.90;;
12363;SDS011;6246;50.826;4.712;2023-02-28T16:34:41;2.07;;;1.17;;
12363;SDS011;6246;50.826;4.712;2023-02-28T16:37:14;1.70;;;1.50;;
12363;SDS011;6246;50.826;4.712;2023-02-28T16:39:40;1.83;;;1.33;;
12363;SDS011;6246;50.826;4.712;2023-02-28T16:42:08;2.23;;;1.97;;
12363;SDS011;6246;50.826;4.712;2023-02-28T16:44:36;2.77;;;1.53;;
12363;SDS011;6246;50.826;4.712;2023-02-28T16:47:03;5.17;;;1.50;;
12363;SDS011;6246;50.826;4.712;2023-02-28T16:49:29;2.73;;;1.80;;
12363;SDS011;6246;50.826;4.712;2023-02-28T16:51:55;4.07;;;1.50;;
12363;SDS011;6246;50.826;4.712;2023-02-28T16:54:21;3.90;;;1.70;;
12363;SDS011;6246;50.826;4.712;2023-02-28T16:56:47;12.40;;;2.47;;
12363;SDS011;6246;50.826;4.712;2023-02-28T16:59:15;5.07;;;1.70;;
12363;SDS011;6246;50.826;4.712;2023-02-28T17:01:43;5.23;;;1.23;;
12363;SDS011;6246;50.826;4.712;2023-02-28T17:04:10;4.10;;;1.80;;
12363;SDS011;6246;50.826;4.712;2023-02-28T17:06:37;5.30;;;2.00;;
12363;SDS011;6246;50.826;4.712;2023-02-28T17:09:03;4.17;;;2.10;;
12363;SDS011;6246;50.826;4.712;2023-02-28T17:11:29;1.90;;;1.63;;
12363;SDS011;6246;50.826;4.712;2023-02-28T17:13:55;3.07;;;1.63;;